Templepatrick, United Kingdom
Current Conditions -  °F | °C
As of 8:50 AM on Monday 22 Dec 2014 (Local Time) from EGAA Reporting Station
Light Rain Light Rain  
Wind Chill: 44°   Ceiling: 700
Heat Index: 48°   Visibility: 2.3mi
Dew Point: 48°   Wind: 9mph
Humidity: 100%   Direction: 260°W
Pressure: 29.71"   Gusts: NA
Location:  54.68°N, 6.08°W
Report Text: EGAA 220850Z 26008KT 3700 -RA BR SCT002 BKN007 09/09 Q1006 RERA
Loading
Personal Weather Stations






























Interactive Weather Map New forecast layout! Learn more

10-Day Weather Forecast

Advertisements
Track Severe Weather on mobile